Main page
METAR-TAF:

METAR-TAF

Airports :

Gran Canaria, Spain

Gran Canaria Airport

latitude: 27-56N, longitude: 015-23W, elevation: 23 m

Current weather observation

The report was made 27 minutes ago, at 05:00 UTC
Wind 7 kt from the West/Northwest
Temperature 14°C
Humidity 67%
Pressure 1016 hPa
Visibility 10 km or more
no clouds below 1500 m and no cumulonimbus

METAR: GCLP 260500Z 30007KT CAVOK 14/08 Q1016 NOSIG

Time: 06:27 (05:27 UTC)

Forecast

The report was made 3 hours and 27 minutes ago, at 02:00 UTC
Forecast valid from 26 at 03 UTC to 27 at 03 UTC
Wind 8 kt from the North/Northwest
Visibility 10 km or more
Scattered clouds at a height of 3000 ft
Becoming
from 26 at 09 UTC to 26 at 11 UTC
Wind 10 kt from the East/Northeast
Becoming
from 26 at 17 UTC to 26 at 19 UTC
Wind 9 kt from the North/Northwest

TAF: GCLP 260200Z 2603/2703 34008KT 9999 SCT030 TX19/2613Z TN12/2606Z BECMG 2609/2611 06010KT BECMG 2617/2619 34009KT

Weather observations and forecasts of more than 4000 airports (METAR and TAF reports).

The available stations are represented by yellow and red dots on the map.

Hover mouse over dot to see the name of the station.

Then click to see weather observations and forecasts.

To change the map : click on the green buttons with a black cross to zoom in, on the green button with a dash to zoom out, or on the green arrows for adjacent maps.


METAR-TAF: